Time;durP1;ratioP1;P1;durP2;ratioP2;P2;SDS_P1;SDS_P2;PMS_P1;PMS_P2;Temp;Humidity;BMP_temperature;BMP_pressure;BME280_temperature;BME280_humidity;BME280_pressure;Samples;Min_cycle;Max_cycle;Signal;HPM_P1;HPM_P2
2022/04/22 00:01:36;;;;;;;5.60;4.00;;;11.20;99.90;;;;;;5137119;27;20237;-79
2022/04/22 00:04:03;;;;;;;5.50;3.80;;;11.20;99.90;;;;;;5135056;27;20197;-79
2022/04/22 00:06:29;;;;;;;6.50;4.13;;;11.10;99.90;;;;;;5135143;27;20176;-79
2022/04/22 00:08:55;;;;;;;5.90;4.17;;;11.10;99.90;;;;;;5152700;27;20465;-80
2022/04/22 00:11:30;;;;;;;6.97;4.73;;;11.10;99.90;;;;;;5135186;27;21008;-80
2022/04/22 00:14:01;;;;;;;6.00;3.83;;;11.10;99.90;;;;;;5136568;27;20426;-80
2022/04/22 00:16:28;;;;;;;4.53;3.80;;;11.10;99.90;;;;;;5151240;27;20824;-79
2022/04/22 00:18:54;;;;;;;6.07;4.23;;;11.20;99.90;;;;;;5158036;27;20509;-80
2022/04/22 00:21:20;;;;;;;5.20;3.83;;;11.20;99.90;;;;;;5158239;27;20951;-80
2022/04/22 00:23:46;;;;;;;5.63;4.10;;;11.20;99.90;;;;;;5159480;27;20446;-79
2022/04/22 00:26:12;;;;;;;6.47;4.83;;;11.20;99.90;;;;;;5143329;27;20441;-79
2022/04/22 00:28:37;;;;;;;5.57;3.97;;;11.20;99.90;;;;;;5143190;27;20422;-79
2022/04/22 00:31:03;;;;;;;5.00;4.00;;;11.20;99.90;;;;;;5141839;27;20180;-80
2022/04/22 00:33:29;;;;;;;6.03;3.90;;;11.10;99.90;;;;;;5159177;27;20193;-79
2022/04/22 00:35:55;;;;;;;5.80;3.70;;;11.10;99.90;;;;;;5142742;27;20176;-79
2022/04/22 00:38:20;;;;;;;5.23;4.03;;;11.10;99.90;;;;;;5140434;27;20273;-79
2022/04/22 00:40:46;;;;;;;4.83;3.60;;;11.10;99.90;;;;;;5141246;27;20187;-79
2022/04/22 00:43:23;;;;;;;5.20;3.67;;;11.10;99.90;;;;;;5140400;27;20177;-80
2022/04/22 00:45:49;;;;;;;5.00;4.10;;;11.10;99.90;;;;;;5142087;27;20417;-80
2022/04/22 00:48:16;;;;;;;5.03;3.70;;;11.00;99.90;;;;;;5156776;27;20418;-79
2022/04/22 00:50:42;;;;;;;5.77;4.00;;;11.00;99.90;;;;;;5158371;27;20909;-79
2022/04/22 00:53:09;;;;;;;4.87;3.60;;;10.90;99.90;;;;;;5140229;27;20870;-79
2022/04/22 00:55:39;;;;;;;5.80;4.00;;;10.90;99.90;;;;;;5142044;27;20847;-79
2022/04/22 00:58:05;;;;;;;7.47;4.03;;;10.90;99.90;;;;;;5139466;27;20518;-79
2022/04/22 01:00:31;;;;;;;6.90;4.57;;;10.80;99.90;;;;;;5140980;27;20452;-79
2022/04/22 01:02:57;;;;;;;5.70;3.83;;;10.80;99.90;;;;;;5157791;27;20416;-79
2022/04/22 01:11:10;;;;;;;5.93;3.97;;;10.70;99.90;;;;;;5098315;28;20449;-79
2022/04/22 01:13:36;;;;;;;5.90;4.50;;;10.70;99.90;;;;;;5132145;28;20432;-81
2022/04/22 01:16:01;;;;;;;4.83;3.43;;;10.60;99.90;;;;;;5140185;28;20222;-81
2022/04/22 01:18:27;;;;;;;6.60;4.40;;;10.60;99.90;;;;;;5156771;27;20187;-79
2022/04/22 01:20:53;;;;;;;7.03;4.63;;;10.60;99.90;;;;;;5140656;28;20195;-79
2022/04/22 01:23:18;;;;;;;7.33;4.70;;;10.50;99.90;;;;;;5141439;28;20517;-81
2022/04/22 01:25:44;;;;;;;6.90;4.07;;;10.50;99.90;;;;;;5139484;28;20176;-80
2022/04/22 01:28:10;;;;;;;6.87;4.40;;;10.40;99.90;;;;;;5138853;28;20264;-79
2022/04/22 01:30:36;;;;;;;6.63;4.90;;;10.40;99.90;;;;;;5142501;27;20271;-79
2022/04/22 01:33:02;;;;;;;5.73;4.03;;;10.40;99.90;;;;;;5140408;28;20443;-79
2022/04/22 01:35:27;;;;;;;6.40;3.80;;;10.30;99.90;;;;;;5140568;28;20217;-79
2022/04/22 01:37:53;;;;;;;5.50;4.00;;;10.30;99.90;;;;;;5139511;28;20210;-79
2022/04/22 01:40:18;;;;;;;6.10;4.63;;;10.20;99.90;;;;;;5142138;28;20171;-80
2022/04/22 01:42:44;;;;;;;6.83;3.70;;;10.20;99.90;;;;;;5139388;28;20176;-79
2022/04/22 01:45:12;;;;;;;5.60;4.17;;;10.20;99.90;;;;;;5139640;28;20219;-79
2022/04/22 01:47:38;;;;;;;5.83;4.60;;;10.20;99.90;;;;;;5156862;27;20177;-79
2022/04/22 01:50:04;;;;;;;6.33;4.40;;;10.20;99.90;;;;;;5158068;27;20468;-79
2022/04/22 01:52:29;;;;;;;6.27;4.63;;;10.10;99.90;;;;;;5140805;27;20548;-79
2022/04/22 01:54:56;;;;;;;5.63;4.30;;;10.10;99.90;;;;;;5157701;27;20447;-79
2022/04/22 01:57:22;;;;;;;6.90;4.73;;;10.10;99.90;;;;;;5156255;27;20220;-79
2022/04/22 01:59:48;;;;;;;5.70;5.00;;;10.10;99.90;;;;;;5159132;27;20418;-79
2022/04/22 02:02:15;;;;;;;8.77;5.03;;;10.00;99.90;;;;;;5162098;27;20414;-79
2022/04/22 02:04:41;;;;;;;6.70;5.50;;;10.00;99.90;;;;;;5160795;27;20426;-80
2022/04/22 02:07:07;;;;;;;7.47;4.70;;;10.00;99.90;;;;;;5142177;27;20429;-79
2022/04/22 02:09:32;;;;;;;7.17;5.07;;;10.00;99.90;;;;;;5143432;27;20226;-79
2022/04/22 02:11:58;;;;;;;8.27;5.30;;;10.00;99.90;;;;;;5143077;27;20247;-79
2022/04/22 02:14:25;;;;;;;6.43;5.20;;;9.90;99.90;;;;;;5143313;27;20680;-79
2022/04/22 02:16:51;;;;;;;7.70;6.20;;;9.90;99.90;;;;;;5158943;27;20585;-79
2022/04/22 02:19:17;;;;;;;6.23;5.30;;;9.90;99.90;;;;;;5158875;27;20429;-81
2022/04/22 02:21:43;;;;;;;7.20;5.40;;;9.90;99.90;;;;;;5152778;27;20426;-81
2022/04/22 02:24:09;;;;;;;8.57;5.13;;;9.90;99.90;;;;;;5153417;27;20443;-80
2022/04/22 02:29:27;;;;;;;8.80;5.37;;;9.90;99.90;;;;;;5129458;27;20181;-81
2022/04/22 02:31:53;;;;;;;8.23;5.47;;;9.80;99.90;;;;;;5152347;27;20411;-80
2022/04/22 02:34:23;;;;;;;6.87;5.43;;;9.80;99.90;;;;;;5153205;27;20218;-81
2022/04/22 02:36:50;;;;;;;6.90;4.70;;;9.70;99.90;;;;;;5151806;27;20442;-81
2022/04/22 02:39:16;;;;;;;7.27;5.00;;;9.60;99.90;;;;;;5169255;27;21102;-81
2022/04/22 02:47:11;;;;;;;6.93;5.13;;;9.50;99.90;;;;;;5151639;27;20484;-80
2022/04/22 02:49:36;;;;;;;6.63;4.87;;;9.40;99.90;;;;;;5151775;27;20419;-81
2022/04/22 02:52:02;;;;;;;7.30;4.73;;;9.40;99.90;;;;;;5151439;27;20209;-82
2022/04/22 02:54:30;;;;;;;7.03;5.20;;;9.40;99.90;;;;;;5151674;27;20218;-80
2022/04/22 02:56:57;;;;;;;9.40;5.90;;;9.40;99.90;;;;;;5149518;27;20469;-80
2022/04/22 02:59:23;;;;;;;7.33;5.10;;;9.40;99.90;;;;;;5152033;27;20406;-80
2022/04/22 03:01:49;;;;;;;7.77;6.10;;;9.40;99.90;;;;;;5151387;27;20414;-81
2022/04/22 03:04:15;;;;;;;7.00;5.13;;;9.30;99.90;;;;;;5167450;27;20438;-79
2022/04/22 03:06:41;;;;;;;8.53;5.43;;;9.30;99.90;;;;;;5148858;27;20251;-81
2022/04/22 03:09:07;;;;;;;8.93;5.40;;;9.20;99.90;;;;;;5149097;27;20418;-81
2022/04/22 03:11:34;;;;;;;7.80;5.83;;;9.10;99.90;;;;;;5167124;27;20237;-80
2022/04/22 03:14:00;;;;;;;7.87;5.87;;;9.10;99.90;;;;;;5150963;27;20439;-79
2022/04/22 03:16:28;;;;;;;9.13;6.03;;;9.10;99.90;;;;;;5164942;27;20461;-80
2022/04/22 03:18:54;;;;;;;6.70;5.40;;;9.10;99.90;;;;;;5149895;27;20474;-80
2022/04/22 03:21:19;;;;;;;9.43;6.37;;;9.10;99.90;;;;;;5165829;27;20407;-80
2022/04/22 03:23:45;;;;;;;9.63;5.83;;;9.10;99.90;;;;;;5148384;27;20460;-80
2022/04/22 03:26:11;;;;;;;7.30;5.23;;;9.10;99.90;;;;;;5147460;27;20180;-81
2022/04/22 03:28:38;;;;;;;9.63;5.33;;;9.10;99.90;;;;;;5147778;27;20414;-79
2022/04/22 03:31:04;;;;;;;8.20;5.40;;;9.00;99.90;;;;;;5148683;27;20163;-82
2022/04/22 03:33:30;;;;;;;10.13;6.07;;;9.00;99.90;;;;;;5164389;27;20459;-80
2022/04/22 03:35:56;;;;;;;8.27;6.03;;;9.00;99.90;;;;;;5147919;27;20414;-81
2022/04/22 03:38:22;;;;;;;8.97;6.20;;;9.00;99.90;;;;;;5146573;27;20630;-79
2022/04/22 03:40:48;;;;;;;6.80;6.07;;;8.90;99.90;;;;;;5149145;27;20756;-80
2022/04/22 03:43:15;;;;;;;7.77;5.67;;;8.90;99.90;;;;;;5147210;27;20413;-79
2022/04/22 03:45:40;;;;;;;8.33;6.03;;;8.90;99.90;;;;;;5149353;27;20504;-80
2022/04/22 03:48:10;;;;;;;9.40;6.47;;;8.90;99.90;;;;;;5163696;27;20414;-81
2022/04/22 03:50:36;;;;;;;8.57;6.60;;;8.90;99.90;;;;;;5162805;27;20195;-79
2022/04/22 03:53:03;;;;;;;8.23;6.20;;;8.80;99.90;;;;;;5164003;27;20453;-79
2022/04/22 03:55:29;;;;;;;7.03;6.07;;;8.80;99.90;;;;;;5163868;27;20486;-81
2022/04/22 03:58:12;;;;;;;8.77;6.27;;;8.80;99.90;;;;;;5144628;27;20491;-80
2022/04/22 04:00:51;;;;;;;7.90;5.87;;;8.80;99.90;;;;;;5145651;27;20394;-78
2022/04/22 04:03:26;;;;;;;6.83;5.50;;;8.80;99.90;;;;;;5163807;27;20413;-81
2022/04/22 04:05:52;;;;;;;10.33;7.30;;;8.70;99.90;;;;;;5143499;27;20489;-79
2022/04/22 04:08:19;;;;;;;8.70;6.33;;;8.70;99.90;;;;;;5120873;27;20901;-79
2022/04/22 04:16:15;;;;;;;9.00;6.63;;;8.60;99.90;;;;;;5140661;27;20919;-79
2022/04/22 04:18:41;;;;;;;9.50;6.93;;;8.60;99.90;;;;;;5155521;27;20448;-79
2022/04/22 04:23:53;;;;;;;10.37;6.87;;;8.50;99.90;;;;;;5139556;27;20530;-79
2022/04/22 04:26:21;;;;;;;8.60;5.83;;;8.50;99.90;;;;;;5155967;27;20415;-80
2022/04/22 04:28:49;;;;;;;8.87;6.57;;;8.50;99.90;;;;;;5155497;27;20853;-79
2022/04/22 04:31:15;;;;;;;12.13;5.93;;;8.50;99.90;;;;;;5138649;27;20513;-79
2022/04/22 04:33:42;;;;;;;8.93;6.90;;;8.50;99.90;;;;;;5137798;27;20441;-79
2022/04/22 04:36:10;;;;;;;9.87;6.23;;;8.50;99.90;;;;;;5137977;27;20429;-78
2022/04/22 04:38:37;;;;;;;8.77;6.23;;;8.50;99.90;;;;;;5154585;27;20453;-81
2022/04/22 04:41:03;;;;;;;8.77;6.33;;;8.50;99.90;;;;;;5155291;27;20440;-78
2022/04/22 04:43:29;;;;;;;9.20;6.70;;;8.50;99.90;;;;;;5155016;27;20474;-79
2022/04/22 04:45:55;;;;;;;10.00;5.50;;;8.50;99.90;;;;;;5138927;27;20932;-79
2022/04/22 04:48:21;;;;;;;8.63;6.13;;;8.50;99.90;;;;;;5138267;27;20424;-79
2022/04/22 04:50:47;;;;;;;9.17;6.47;;;8.50;99.90;;;;;;5137698;27;20193;-79
2022/04/22 04:53:13;;;;;;;11.53;7.77;;;8.50;99.90;;;;;;5154423;27;20236;-79
2022/04/22 04:55:39;;;;;;;8.43;6.20;;;8.50;99.90;;;;;;5137034;27;20530;-78
2022/04/22 04:58:05;;;;;;;10.10;7.27;;;8.50;99.90;;;;;;5136672;27;20473;-79
2022/04/22 05:00:31;;;;;;;9.23;6.03;;;8.60;99.90;;;;;;5137023;27;20428;-79
2022/04/22 05:02:57;;;;;;;8.93;6.40;;;8.60;99.90;;;;;;5135990;27;20492;-79
2022/04/22 05:05:23;;;;;;;10.87;7.07;;;8.60;99.90;;;;;;5136315;28;20545;-79
2022/04/22 05:07:49;;;;;;;8.83;6.07;;;8.70;99.90;;;;;;5153052;27;20248;-80
2022/04/22 05:10:16;;;;;;;11.60;7.00;;;8.70;99.90;;;;;;5153344;27;20964;-79
2022/04/22 05:12:42;;;;;;;8.40;6.87;;;8.70;99.90;;;;;;5153050;27;20513;-79
2022/04/22 05:15:09;;;;;;;10.50;7.80;;;8.80;99.90;;;;;;5136820;27;20453;-79
2022/04/22 05:17:35;;;;;;;9.23;6.53;;;8.80;99.90;;;;;;5152166;27;20450;-79
2022/04/22 05:20:01;;;;;;;8.37;6.70;;;8.90;99.90;;;;;;5135552;28;20482;-80
2022/04/22 05:22:26;;;;;;;8.77;6.50;;;8.90;99.90;;;;;;5152694;27;20264;-79
2022/04/22 05:24:52;;;;;;;8.13;6.53;;;9.00;99.90;;;;;;5134383;28;20482;-79
2022/04/22 05:27:17;;;;;;;9.43;6.30;;;9.10;99.90;;;;;;5134194;28;20179;-79
2022/04/22 05:32:36;;;;;;;10.97;7.17;;;9.20;99.90;;;;;;5091495;28;20235;-81
2022/04/22 05:35:06;;;;;;;12.10;7.83;;;9.30;99.90;;;;;;5074806;28;20835;-81
2022/04/22 05:37:52;;;;;;;10.93;7.80;;;9.30;99.90;;;;;;5077569;28;20562;-81
2022/04/22 05:40:20;;;;;;;10.97;7.83;;;9.40;99.90;;;;;;5077910;28;20930;-81
2022/04/22 05:42:47;;;;;;;16.90;8.63;;;9.50;99.90;;;;;;5077559;28;20424;-81
2022/04/22 05:45:14;;;;;;;14.27;8.53;;;9.60;99.90;;;;;;5077260;28;20413;-81
2022/04/22 05:47:41;;;;;;;16.63;8.47;;;9.70;99.90;;;;;;5077399;28;20427;-81
2022/04/22 05:50:15;;;;;;;12.50;8.30;;;9.70;99.90;;;;;;5077503;28;20416;-82
2022/04/22 05:52:42;;;;;;;11.27;7.20;;;9.90;99.90;;;;;;5077429;28;20767;-81
2022/04/22 05:55:16;;;;;;;16.37;8.57;;;10.00;99.90;;;;;;5077555;28;20533;-81
2022/04/22 05:57:43;;;;;;;11.73;8.63;;;10.00;99.90;;;;;;5077970;28;20448;-78
2022/04/22 06:00:12;;;;;;;12.50;8.50;;;10.10;99.90;;;;;;5079466;28;20427;-78
2022/04/22 06:02:39;;;;;;;14.20;8.53;;;10.20;99.90;;;;;;5079691;28;20413;-78
2022/04/22 06:05:05;;;;;;;13.27;8.70;;;10.40;99.90;;;;;;5078446;28;20420;-76
2022/04/22 06:07:31;;;;;;;14.27;8.70;;;10.50;99.90;;;;;;5076548;28;20451;-76
2022/04/22 06:12:41;;;;;;;12.70;7.40;;;10.80;99.90;;;;;;5095287;28;20196;-77
2022/04/22 06:15:08;;;;;;;12.73;8.37;;;10.90;99.90;;;;;;5076441;28;20419;-76
2022/04/22 06:17:33;;;;;;;13.40;8.80;;;11.00;99.90;;;;;;5076402;28;20466;-76
2022/04/22 06:19:59;;;;;;;12.30;7.90;;;11.10;99.90;;;;;;5076519;28;20514;-77
2022/04/22 06:22:26;;;;;;;11.97;8.00;;;11.20;99.90;;;;;;5076510;28;20182;-76
2022/04/22 06:24:53;;;;;;;12.43;8.53;;;11.40;99.90;;;;;;5076449;28;20465;-76
2022/04/22 06:27:34;;;;;;;11.73;8.37;;;11.50;99.90;;;;;;5076165;28;20437;-77
2022/04/22 06:30:05;;;;;;;13.97;8.13;;;11.60;99.90;;;;;;5076418;28;20530;-77
2022/04/22 06:32:31;;;;;;;13.47;8.40;;;11.70;99.90;;;;;;5076991;28;20792;-77
2022/04/22 06:34:57;;;;;;;13.70;7.93;;;11.80;99.90;;;;;;5076768;28;20477;-77
2022/04/22 06:37:24;;;;;;;12.10;7.63;;;11.80;99.90;;;;;;5076746;28;20463;-77
2022/04/22 06:48:04;;;;;;;14.37;8.50;;;12.20;99.90;;;;;;5094492;28;20499;-76
2022/04/22 06:50:31;;;;;;;14.33;8.63;;;12.20;99.90;;;;;;5075825;28;20835;-77
2022/04/22 06:52:56;;;;;;;12.60;8.13;;;12.30;99.90;;;;;;5076383;28;20461;-77
2022/04/22 06:55:24;;;;;;;14.83;8.50;;;12.40;99.90;;;;;;5075935;28;20452;-77
2022/04/22 06:57:50;;;;;;;13.13;7.90;;;12.50;99.90;;;;;;5076134;28;20206;-77
2022/04/22 07:00:17;;;;;;;10.77;7.57;;;12.60;99.90;;;;;;5076683;28;20417;-77
2022/04/22 07:02:44;;;;;;;14.00;8.90;;;12.70;99.90;;;;;;5075884;28;20432;-76
2022/04/22 07:05:10;;;;;;;13.27;8.87;;;12.80;99.90;;;;;;5075803;28;20420;-77
2022/04/22 07:07:36;;;;;;;11.57;7.87;;;12.90;99.90;;;;;;5076440;28;20539;-78
2022/04/22 07:10:03;;;;;;;10.77;7.90;;;12.90;99.90;;;;;;5075670;28;20507;-76
2022/04/22 07:12:31;;;;;;;14.20;9.00;;;13.10;99.90;;;;;;5075592;28;20435;-77
2022/04/22 07:15:03;;;;;;;14.10;8.73;;;13.30;99.90;;;;;;5076177;28;20424;-76
2022/04/22 07:17:34;;;;;;;11.73;8.83;;;13.60;99.90;;;;;;5074991;28;20472;-76
2022/04/22 07:20:09;;;;;;;14.13;8.47;;;13.90;99.90;;;;;;5075390;28;20436;-76
2022/04/22 07:22:36;;;;;;;13.40;8.13;;;14.10;99.90;;;;;;5075129;28;20431;-76
2022/04/22 07:25:03;;;;;;;14.60;9.57;;;14.10;99.90;;;;;;5075931;28;20412;-77
2022/04/22 07:27:33;;;;;;;12.97;7.93;;;14.10;99.90;;;;;;5075158;28;20436;-76
2022/04/22 07:29:59;;;;;;;10.90;7.40;;;14.20;99.90;;;;;;5075399;28;20481;-77
2022/04/22 07:32:26;;;;;;;13.63;8.83;;;14.10;99.90;;;;;;5075406;28;20460;-77
2022/04/22 07:34:54;;;;;;;11.87;8.07;;;14.10;99.90;;;;;;5074999;28;20425;-77
2022/04/22 07:37:21;;;;;;;14.93;9.20;;;14.10;99.90;;;;;;5074347;28;20467;-76
2022/04/22 07:39:47;;;;;;;12.70;8.20;;;13.90;99.90;;;;;;5074574;28;20477;-77
2022/04/22 07:42:19;;;;;;;13.90;8.90;;;13.70;99.90;;;;;;5065157;28;20481;-77
2022/04/22 07:47:38;;;;;;;15.57;8.80;;;13.60;99.90;;;;;;5072181;28;20439;-77
2022/04/22 07:50:06;;;;;;;13.07;9.00;;;13.60;99.90;;;;;;5054370;28;20425;-76
2022/04/22 07:52:38;;;;;;;13.23;9.30;;;13.70;99.90;;;;;;5054488;28;20524;-77
2022/04/22 07:55:04;;;;;;;11.40;8.67;;;13.60;99.90;;;;;;5053884;28;20443;-77
2022/04/22 07:57:30;;;;;;;15.53;9.50;;;13.70;99.90;;;;;;5053310;28;20952;-77
2022/04/22 07:59:57;;;;;;;13.90;9.10;;;14.00;99.90;;;;;;5053963;28;20420;-77
2022/04/22 08:02:23;;;;;;;18.20;9.33;;;14.40;99.90;;;;;;5054266;28;20916;-77
2022/04/22 08:04:50;;;;;;;16.00;8.90;;;15.00;99.90;;;;;;5054205;28;20837;-76
2022/04/22 08:07:18;;;;;;;15.10;10.00;;;15.70;99.90;;;;;;5054615;28;20453;-77
2022/04/22 08:09:45;;;;;;;11.63;8.50;;;15.80;99.90;;;;;;5054254;28;20451;-77
2022/04/22 08:12:12;;;;;;;10.43;7.77;;;15.80;99.90;;;;;;5053864;28;20421;-77
2022/04/22 08:14:41;;;;;;;9.60;7.20;;;15.70;99.90;;;;;;5054050;28;20817;-77
2022/04/22 08:17:07;;;;;;;10.97;7.77;;;15.70;99.90;;;;;;5053407;28;20555;-77
2022/04/22 08:19:34;;;;;;;11.43;8.40;;;15.60;99.90;;;;;;5054080;28;20818;-77
2022/04/22 08:22:00;;;;;;;14.47;8.83;;;15.60;99.90;;;;;;5053741;28;20431;-77
2022/04/22 08:24:26;;;;;;;9.20;7.63;;;15.60;99.90;;;;;;5053195;28;20475;-77
2022/04/22 08:26:52;;;;;;;13.40;7.47;;;15.90;99.90;;;;;;5052921;28;20441;-77
2022/04/22 08:29:18;;;;;;;11.37;7.80;;;16.60;99.90;;;;;;5053709;28;20502;-79
2022/04/22 08:31:47;;;;;;;9.00;6.97;;;17.60;99.90;;;;;;5057601;28;20425;-79
2022/04/22 08:34:13;;;;;;;12.30;8.07;;;18.80;99.90;;;;;;5058222;28;20225;-79
2022/04/22 08:36:38;;;;;;;11.00;6.73;;;19.20;99.90;;;;;;5053687;28;20507;-77
2022/04/22 08:39:07;;;;;;;11.03;7.10;;;;;;;;;;5063233;28;20260;-77
2022/04/22 08:41:35;;;;;;;10.00;7.00;;;21.40;99.90;;;;;;5094200;28;20181;-77
2022/04/22 08:44:01;;;;;;;9.40;6.67;;;21.10;99.90;;;;;;5094315;28;20416;-77
2022/04/22 08:52:00;;;;;;;12.33;6.27;;;21.00;99.90;;;;;;5112505;28;20445;-77
2022/04/22 08:54:27;;;;;;;12.53;6.77;;;20.70;99.90;;;;;;5093831;28;20434;-77
2022/04/22 08:56:57;;;;;;;7.70;5.50;;;20.10;99.90;;;;;;5093499;28;20462;-77
2022/04/22 08:59:25;;;;;;;9.00;5.17;;;19.40;99.90;;;;;;5093572;28;20444;-77
2022/04/22 09:01:51;;;;;;;6.60;4.73;;;20.10;99.90;;;;;;5093795;28;20419;-77
2022/04/22 09:04:19;;;;;;;6.57;4.43;;;21.80;99.90;;;;;;5093906;28;20411;-77
2022/04/22 09:06:47;;;;;;;6.37;4.87;;;23.10;98.60;;;;;;5093473;28;20448;-77
2022/04/22 09:09:13;;;;;;;9.20;5.00;;;22.50;94.70;;;;;;5082710;28;20431;-77
2022/04/22 09:11:43;;;;;;;6.40;4.57;;;22.80;95.20;;;;;;5076439;28;20425;-77
2022/04/22 09:14:09;;;;;;;5.43;4.03;;;24.40;92.30;;;;;;5076530;28;20423;-77
2022/04/22 09:16:37;;;;;;;7.80;5.10;;;24.60;86.80;;;;;;5076404;28;20437;-77
2022/04/22 09:19:03;;;;;;;6.73;5.13;;;25.00;81.10;;;;;;5077315;28;20980;-77
2022/04/22 09:21:32;;;;;;;6.13;4.63;;;25.80;76.90;;;;;;5076694;28;20428;-77
2022/04/22 09:24:13;;;;;;;7.03;4.97;;;26.90;70.00;;;;;;5076113;28;20934;-77
2022/04/22 09:26:39;;;;;;;5.53;4.40;;;25.90;65.90;;;;;;5075883;28;20455;-77
2022/04/22 09:29:06;;;;;;;6.83;5.10;;;24.90;69.20;;;;;;5068240;28;20585;-77
2022/04/22 09:31:49;;;;;;;6.50;4.87;;;24.00;68.60;;;;;;5087257;28;20426;-77
2022/04/22 09:34:15;;;;;;;6.70;4.47;;;23.20;70.50;;;;;;5081406;28;20438;-77
2022/04/22 09:44:59;;;;;;;5.57;4.47;;;21.30;82.60;;;;;;5118859;28;20460;-77
2022/04/22 09:47:30;;;;;;;5.53;4.40;;;21.00;81.10;;;;;;5099675;28;20513;-77
2022/04/22 09:49:59;;;;;;;5.60;4.23;;;20.70;82.90;;;;;;5099903;28;20471;-77
2022/04/22 09:52:29;;;;;;;6.70;4.80;;;20.50;84.60;;;;;;5099832;28;20480;-77
2022/04/22 09:54:57;;;;;;;6.43;5.10;;;20.30;90.30;;;;;;5099976;28;20426;-77
2022/04/22 09:57:23;;;;;;;8.80;5.73;;;20.10;92.10;;;;;;5099474;28;20471;-76
2022/04/22 09:59:51;;;;;;;9.53;5.57;;;19.60;92.80;;;;;;5100109;28;20414;-77
2022/04/22 10:02:21;;;;;;;7.90;5.67;;;19.50;93.80;;;;;;5099713;28;20181;-77
2022/04/22 10:04:49;;;;;;;9.70;5.50;;;19.30;96.20;;;;;;5100118;28;20896;-77
2022/04/22 10:07:16;;;;;;;8.77;5.50;;;19.00;98.40;;;;;;5099757;28;20447;-77
2022/04/22 10:09:48;;;;;;;7.27;5.40;;;18.70;99.50;;;;;;5078864;28;20424;-76
2022/04/22 10:12:18;;;;;;;7.00;4.77;;;19.40;99.90;;;;;;5093176;28;20445;-77
2022/04/22 10:14:45;;;;;;;7.97;5.70;;;20.00;97.30;;;;;;5091414;28;20993;-77
2022/04/22 10:17:11;;;;;;;7.40;5.03;;;20.20;97.80;;;;;;5086519;28;20491;-77
2022/04/22 10:19:37;;;;;;;7.13;4.90;;;20.20;96.80;;;;;;5080261;28;20508;-77
2022/04/22 10:22:04;;;;;;;5.73;4.07;;;20.40;94.30;;;;;;5095992;28;20451;-76
2022/04/22 10:24:34;;;;;;;6.63;5.40;;;20.30;93.30;;;;;;5092518;28;20654;-77
2022/04/22 10:27:02;;;;;;;6.30;5.40;;;20.40;93.20;;;;;;5072728;28;20594;-77
2022/04/22 10:29:30;;;;;;;6.40;4.93;;;20.60;93.20;;;;;;5073816;28;20555;-77
2022/04/22 10:31:56;;;;;;;6.60;5.03;;;21.10;92.00;;;;;;5074515;28;20424;-77
2022/04/22 10:34:41;;;;;;;8.10;5.23;;;23.40;88.40;;;;;;5087991;28;20449;-77
2022/04/22 10:37:23;;;;;;;7.57;5.30;;;26.10;75.20;;;;;;5095928;28;20545;-77
2022/04/22 10:39:51;;;;;;;6.17;4.80;;;27.30;66.50;;;;;;5096629;28;20817;-77
2022/04/22 10:42:17;;;;;;;8.00;4.70;;;27.20;64.90;;;;;;5096946;28;20486;-77
2022/04/22 10:47:42;;;;;;;9.07;5.20;;;27.40;55.10;;;;;;5115351;28;20435;-77
2022/04/22 10:50:32;;;;;;;8.17;5.57;;;26.00;55.90;;;;;;5095923;28;20491;-77
2022/04/22 10:53:04;;;;;;;7.43;5.70;;;24.60;57.40;;;;;;5095958;28;20427;-76
2022/04/22 10:55:35;;;;;;;6.50;5.03;;;23.80;58.70;;;;;;5095771;28;20428;-77
2022/04/22 10:58:13;;;;;;;6.60;5.07;;;23.20;59.50;;;;;;5070474;28;20909;-77
2022/04/22 11:00:44;;;;;;;6.97;5.20;;;24.20;62.70;;;;;;5077708;28;20495;-77
2022/04/22 11:03:25;;;;;;;7.00;5.73;;;24.40;62.30;;;;;;5076178;28;20793;-79
2022/04/22 11:05:55;;;;;;;6.00;4.60;;;24.90;61.60;;;;;;5072347;28;20453;-78
2022/04/22 11:08:25;;;;;;;6.00;4.93;;;;;;;;;;5072254;28;20516;-77
2022/04/22 11:10:51;;;;;;;5.60;4.60;;;29.90;54.40;;;;;;5072206;28;20798;-77
2022/04/22 11:13:30;;;;;;;6.37;5.10;;;30.40;52.70;;;;;;5072673;28;20425;-79
2022/04/22 11:16:23;;;;;;;6.90;6.20;;;31.80;47.70;;;;;;5072017;28;20441;-78
2022/04/22 11:19:08;;;;;;;7.33;5.30;;;33.10;42.30;;;;;;5072494;28;20429;-80
2022/04/22 11:21:37;;;;;;;7.53;5.00;;;34.00;41.60;;;;;;5072991;28;20412;-79
2022/04/22 11:24:15;;;;;;;7.43;5.37;;;32.30;37.90;;;;;;5072550;28;20801;-79
2022/04/22 11:26:42;;;;;;;7.20;5.80;;;30.20;41.10;;;;;;5071526;28;21026;-78
2022/04/22 11:29:10;;;;;;;7.07;5.37;;;30.20;42.40;;;;;;5072090;28;20506;-79
2022/04/22 11:31:36;;;;;;;6.07;5.13;;;30.10;41.10;;;;;;5072051;28;20801;-78
2022/04/22 11:34:14;;;;;;;7.07;4.63;;;30.40;41.20;;;;;;5070891;28;20433;-77
2022/04/22 11:36:47;;;;;;;6.13;4.47;;;29.70;40.60;;;;;;5097209;22;20445;-85
2022/04/22 11:39:26;;;;;;;6.00;5.30;;;29.10;41.80;;;;;;5072398;28;20472;-82
2022/04/22 11:42:00;;;;;;;6.67;5.07;;;28.20;42.90;;;;;;5073077;28;20471;-82
2022/04/22 11:44:27;;;;;;;6.10;5.17;;;28.10;44.20;;;;;;5076616;28;21242;-83
2022/04/22 11:46:52;;;;;;;5.13;4.10;;;29.60;43.10;;;;;;5057851;28;20440;-83
2022/04/22 11:49:19;;;;;;;5.30;4.50;;;30.40;41.00;;;;;;5058722;28;20417;-83
2022/04/22 11:51:46;;;;;;;8.40;5.10;;;30.90;42.60;;;;;;5057281;28;20175;-82
2022/04/22 11:54:20;;;;;;;5.40;4.70;;;30.60;40.70;;;;;;5080344;28;20408;-82
2022/04/22 11:56:45;;;;;;;5.67;4.23;;;29.00;40.80;;;;;;5060152;28;20472;-82
2022/04/22 11:59:11;;;;;;;7.17;4.60;;;27.70;42.80;;;;;;5060973;28;20434;-83
2022/04/22 12:10:00;;;;;;;6.20;4.50;;;27.40;45.50;;;;;;5078544;28;20455;-79
2022/04/22 12:12:28;;;;;;;5.30;4.40;;;28.40;46.20;;;;;;5078602;28;20435;-80
2022/04/22 12:15:06;;;;;;;6.97;4.27;;;28.60;44.60;;;;;;5059958;28;20775;-80
2022/04/22 12:17:31;;;;;;;4.83;4.20;;;28.30;43.60;;;;;;5058832;28;20806;-80
2022/04/22 12:19:57;;;;;;;6.37;4.10;;;28.20;43.90;;;;;;5077866;28;20466;-80
2022/04/22 12:22:24;;;;;;;5.80;4.60;;;27.90;44.70;;;;;;5059501;28;20170;-80
2022/04/22 12:25:09;;;;;;;5.30;4.13;;;27.40;45.30;;;;;;5077340;28;20413;-80
2022/04/22 12:27:35;;;;;;;5.00;4.20;;;27.50;46.50;;;;;;5077183;28;20436;-80
2022/04/22 12:30:06;;;;;;;7.30;4.70;;;27.90;44.70;;;;;;5059552;28;20471;-79
2022/04/22 12:32:32;;;;;;;4.40;3.87;;;27.80;44.40;;;;;;5076998;28;20459;-80
2022/04/22 12:35:11;;;;;;;5.03;4.00;;;27.70;44.20;;;;;;5058843;28;20413;-80
2022/04/22 12:37:41;;;;;;;5.43;4.20;;;27.00;43.60;;;;;;5056974;28;20765;-79
2022/04/22 12:40:09;;;;;;;4.60;3.70;;;26.50;44.90;;;;;;5058137;28;20530;-79
2022/04/22 12:42:36;;;;;;;4.93;4.20;;;26.50;44.70;;;;;;5057818;28;20466;-80
2022/04/22 12:53:48;;;;;;;4.60;3.60;;;26.10;47.80;;;;;;5072674;28;20400;-81
2022/04/22 12:56:14;;;;;;;5.63;4.50;;;27.40;49.80;;;;;;5071644;28;20464;-81
2022/04/22 12:58:54;;;;;;;4.83;3.87;;;27.00;44.00;;;;;;5052689;28;20518;-83
2022/04/22 13:01:40;;;;;;;5.30;4.23;;;26.40;45.80;;;;;;5071545;28;20420;-83
2022/04/22 13:04:18;;;;;;;5.70;4.57;;;26.20;46.00;;;;;;5053487;28;20425;-88
2022/04/22 13:06:50;;;;;;;6.10;5.03;;;27.20;47.60;;;;;;5082021;22;20445;-80
2022/04/22 13:09:19;;;;;;;4.77;4.10;;;27.60;44.60;;;;;;5059569;28;20463;-81
2022/04/22 13:11:46;;;;;;;5.13;4.00;;;29.70;45.40;;;;;;5057832;28;20475;-80
2022/04/22 13:14:12;;;;;;;6.10;4.70;;;30.00;44.40;;;;;;5058431;28;20430;-81
2022/04/22 13:16:38;;;;;;;6.13;4.30;;;29.80;42.50;;;;;;5057348;28;21114;-81
2022/04/22 13:19:04;;;;;;;5.03;4.53;;;29.60;42.90;;;;;;5057576;28;20520;-80
2022/04/22 13:21:29;;;;;;;5.60;4.43;;;28.40;43.40;;;;;;5057330;28;20178;-81
2022/04/22 13:23:56;;;;;;;5.10;4.20;;;27.70;44.90;;;;;;5056921;28;20186;-80
2022/04/22 13:26:23;;;;;;;5.33;4.80;;;27.20;44.70;;;;;;5057066;28;20257;-80
2022/04/22 13:28:50;;;;;;;5.80;4.50;;;26.80;44.90;;;;;;5057304;28;20483;-80
2022/04/22 13:31:16;;;;;;;6.00;4.37;;;26.90;46.70;;;;;;5057423;28;20452;-81
2022/04/22 13:33:42;;;;;;;5.83;4.73;;;28.50;45.00;;;;;;5056862;28;20456;-80
2022/04/22 13:36:10;;;;;;;5.00;4.27;;;27.70;43.70;;;;;;5056877;28;20205;-80
2022/04/22 13:38:37;;;;;;;5.97;5.17;;;28.30;45.50;;;;;;5056441;28;20226;-80
2022/04/22 13:41:06;;;;;;;6.03;4.60;;;29.80;44.70;;;;;;5056895;28;20429;-80
2022/04/22 13:43:32;;;;;;;5.03;4.53;;;30.20;42.30;;;;;;5059273;28;20847;-80
2022/04/22 13:54:16;;;;;;;6.63;5.07;;;27.20;46.50;;;;;;5079538;28;20401;-80
2022/04/22 13:56:41;;;;;;;5.00;4.50;;;26.10;47.50;;;;;;5062409;28;20810;-81
2022/04/22 13:59:08;;;;;;;5.70;4.77;;;25.70;49.80;;;;;;5072487;28;20444;-81
2022/04/22 14:01:33;;;;;;;6.17;4.60;;;25.50;51.60;;;;;;5084195;28;20193;-81
2022/04/22 14:03:59;;;;;;;6.70;5.60;;;25.50;53.20;;;;;;5083178;28;20424;-81
2022/04/22 14:06:25;;;;;;;6.90;5.17;;;25.60;52.00;;;;;;5082950;28;20214;-80
2022/04/22 14:08:51;;;;;;;5.93;4.47;;;25.30;52.00;;;;;;5083139;28;20200;-81
2022/04/22 14:11:17;;;;;;;5.77;4.40;;;25.40;51.20;;;;;;5082780;28;20220;-81
2022/04/22 14:13:43;;;;;;;6.37;4.63;;;25.50;52.40;;;;;;5082816;28;20566;-80